sensor_id;sensor_type;location;lat;lon;timestamp;P1;durP1;ratioP1;P2;durP2;ratioP2
4517;SDS011;2271;49.464;11.070;2023-05-07T00:02:24;1.75;;;1.65;;
4517;SDS011;2271;49.464;11.070;2023-05-07T00:04:50;2.20;;;1.40;;
4517;SDS011;2271;49.464;11.070;2023-05-07T00:07:17;2.35;;;1.85;;
4517;SDS011;2271;49.464;11.070;2023-05-07T00:09:43;1.92;;;1.83;;
4517;SDS011;2271;49.464;11.070;2023-05-07T00:12:08;1.50;;;1.40;;
4517;SDS011;2271;49.464;11.070;2023-05-07T00:14:34;2.28;;;1.48;;
4517;SDS011;2271;49.464;11.070;2023-05-07T00:17:00;1.77;;;1.45;;
4517;SDS011;2271;49.464;11.070;2023-05-07T00:19:26;1.67;;;1.48;;
4517;SDS011;2271;49.464;11.070;2023-05-07T00:21:51;2.28;;;1.80;;
4517;SDS011;2271;49.464;11.070;2023-05-07T00:24:18;2.53;;;1.92;;
4517;SDS011;2271;49.464;11.070;2023-05-07T00:26:44;1.48;;;1.38;;
4517;SDS011;2271;49.464;11.070;2023-05-07T00:29:10;2.30;;;1.73;;
4517;SDS011;2271;49.464;11.070;2023-05-07T00:31:35;2.50;;;2.30;;
4517;SDS011;2271;49.464;11.070;2023-05-07T00:34:01;3.90;;;1.42;;
4517;SDS011;2271;49.464;11.070;2023-05-07T00:36:27;1.88;;;1.60;;
4517;SDS011;2271;49.464;11.070;2023-05-07T00:38:53;1.63;;;1.48;;
4517;SDS011;2271;49.464;11.070;2023-05-07T00:41:20;1.95;;;1.38;;
4517;SDS011;2271;49.464;11.070;2023-05-07T00:43:46;3.28;;;1.85;;
4517;SDS011;2271;49.464;11.070;2023-05-07T00:46:12;2.53;;;1.92;;
4517;SDS011;2271;49.464;11.070;2023-05-07T00:48:39;3.28;;;1.70;;
4517;SDS011;2271;49.464;11.070;2023-05-07T00:51:05;4.03;;;1.27;;
4517;SDS011;2271;49.464;11.070;2023-05-07T00:53:31;1.50;;;1.40;;
4517;SDS011;2271;49.464;11.070;2023-05-07T00:55:56;1.70;;;1.58;;
4517;SDS011;2271;49.464;11.070;2023-05-07T00:58:22;1.98;;;1.67;;
4517;SDS011;2271;49.464;11.070;2023-05-07T01:00:49;1.90;;;1.70;;
4517;SDS011;2271;49.464;11.070;2023-05-07T01:03:15;3.42;;;1.90;;
4517;SDS011;2271;49.464;11.070;2023-05-07T01:05:40;2.95;;;1.20;;
4517;SDS011;2271;49.464;11.070;2023-05-07T01:08:07;1.55;;;1.45;;
4517;SDS011;2271;49.464;11.070;2023-05-07T01:10:33;5.30;;;2.28;;
4517;SDS011;2271;49.464;11.070;2023-05-07T01:12:59;1.95;;;1.77;;
4517;SDS011;2271;49.464;11.070;2023-05-07T01:15:26;1.45;;;1.30;;
4517;SDS011;2271;49.464;11.070;2023-05-07T01:17:51;3.15;;;1.90;;
4517;SDS011;2271;49.464;11.070;2023-05-07T01:20:18;1.83;;;1.73;;
4517;SDS011;2271;49.464;11.070;2023-05-07T01:22:44;1.83;;;1.73;;
4517;SDS011;2271;49.464;11.070;2023-05-07T01:25:10;2.45;;;1.75;;
4517;SDS011;2271;49.464;11.070;2023-05-07T01:27:36;2.78;;;2.00;;
4517;SDS011;2271;49.464;11.070;2023-05-07T01:30:05;2.13;;;1.98;;
4517;SDS011;2271;49.464;11.070;2023-05-07T01:32:32;2.38;;;1.60;;
4517;SDS011;2271;49.464;11.070;2023-05-07T01:35:02;4.38;;;1.90;;
4517;SDS011;2271;49.464;11.070;2023-05-07T01:37:30;3.08;;;2.53;;
4517;SDS011;2271;49.464;11.070;2023-05-07T01:39:56;2.28;;;2.08;;
4517;SDS011;2271;49.464;11.070;2023-05-07T01:42:22;2.03;;;1.88;;
4517;SDS011;2271;49.464;11.070;2023-05-07T01:44:48;2.40;;;2.03;;
4517;SDS011;2271;49.464;11.070;2023-05-07T01:47:14;3.08;;;1.90;;
4517;SDS011;2271;49.464;11.070;2023-05-07T01:49:41;2.13;;;1.90;;
4517;SDS011;2271;49.464;11.070;2023-05-07T01:52:07;3.30;;;2.30;;
4517;SDS011;2271;49.464;11.070;2023-05-07T01:54:34;3.13;;;1.95;;
4517;SDS011;2271;49.464;11.070;2023-05-07T01:57:00;3.97;;;2.00;;
4517;SDS011;2271;49.464;11.070;2023-05-07T01:59:26;2.20;;;2.10;;
4517;SDS011;2271;49.464;11.070;2023-05-07T02:01:52;4.32;;;1.92;;
4517;SDS011;2271;49.464;11.070;2023-05-07T02:04:17;4.20;;;2.05;;
4517;SDS011;2271;49.464;11.070;2023-05-07T02:06:43;2.28;;;2.08;;
4517;SDS011;2271;49.464;11.070;2023-05-07T02:09:08;7.55;;;2.40;;
4517;SDS011;2271;49.464;11.070;2023-05-07T02:11:34;2.80;;;2.17;;
4517;SDS011;2271;49.464;11.070;2023-05-07T02:14:00;2.42;;;2.22;;
4517;SDS011;2271;49.464;11.070;2023-05-07T02:16:25;2.33;;;2.13;;
4517;SDS011;2271;49.464;11.070;2023-05-07T02:18:51;2.33;;;2.13;;
4517;SDS011;2271;49.464;11.070;2023-05-07T02:21:17;2.40;;;2.20;;
4517;SDS011;2271;49.464;11.070;2023-05-07T02:23:42;2.63;;;2.42;;
4517;SDS011;2271;49.464;11.070;2023-05-07T02:26:08;2.92;;;2.63;;
4517;SDS011;2271;49.464;11.070;2023-05-07T02:28:34;3.00;;;2.47;;
4517;SDS011;2271;49.464;11.070;2023-05-07T02:31:02;2.63;;;2.42;;
4517;SDS011;2271;49.464;11.070;2023-05-07T02:33:29;3.22;;;2.53;;
4517;SDS011;2271;49.464;11.070;2023-05-07T02:35:54;5.03;;;2.55;;
4517;SDS011;2271;49.464;11.070;2023-05-07T02:38:21;2.50;;;2.30;;
4517;SDS011;2271;49.464;11.070;2023-05-07T02:40:48;2.97;;;2.70;;
4517;SDS011;2271;49.464;11.070;2023-05-07T02:43:13;2.97;;;2.50;;
4517;SDS011;2271;49.464;11.070;2023-05-07T02:45:39;2.88;;;2.58;;
4517;SDS011;2271;49.464;11.070;2023-05-07T02:48:04;4.28;;;2.20;;
4517;SDS011;2271;49.464;11.070;2023-05-07T02:50:31;3.65;;;2.83;;
4517;SDS011;2271;49.464;11.070;2023-05-07T02:52:57;3.08;;;2.80;;
4517;SDS011;2271;49.464;11.070;2023-05-07T02:55:23;3.15;;;2.63;;
4517;SDS011;2271;49.464;11.070;2023-05-07T02:57:49;3.20;;;2.90;;
4517;SDS011;2271;49.464;11.070;2023-05-07T03:00:16;5.97;;;2.75;;
4517;SDS011;2271;49.464;11.070;2023-05-07T03:02:43;3.45;;;3.13;;
4517;SDS011;2271;49.464;11.070;2023-05-07T03:05:09;3.85;;;3.03;;
4517;SDS011;2271;49.464;11.070;2023-05-07T03:07:36;3.55;;;3.25;;
4517;SDS011;2271;49.464;11.070;2023-05-07T03:10:02;6.22;;;3.22;;
4517;SDS011;2271;49.464;11.070;2023-05-07T03:12:28;3.97;;;3.60;;
4517;SDS011;2271;49.464;11.070;2023-05-07T03:14:53;5.35;;;3.42;;
4517;SDS011;2271;49.464;11.070;2023-05-07T03:17:20;4.78;;;4.25;;
4517;SDS011;2271;49.464;11.070;2023-05-07T03:19:45;3.63;;;3.35;;
4517;SDS011;2271;49.464;11.070;2023-05-07T03:22:11;3.72;;;3.38;;
4517;SDS011;2271;49.464;11.070;2023-05-07T03:24:37;4.38;;;3.47;;
4517;SDS011;2271;49.464;11.070;2023-05-07T03:27:02;4.45;;;3.65;;
4517;SDS011;2271;49.464;11.070;2023-05-07T03:29:28;4.97;;;3.70;;
4517;SDS011;2271;49.464;11.070;2023-05-07T03:31:53;4.70;;;4.25;;
4517;SDS011;2271;49.464;11.070;2023-05-07T03:34:19;4.07;;;3.67;;
4517;SDS011;2271;49.464;11.070;2023-05-07T03:36:48;5.60;;;3.95;;
4517;SDS011;2271;49.464;11.070;2023-05-07T03:39:14;4.40;;;4.00;;
4517;SDS011;2271;49.464;11.070;2023-05-07T03:41:39;6.43;;;4.10;;
4517;SDS011;2271;49.464;11.070;2023-05-07T03:44:05;4.45;;;4.03;;
4517;SDS011;2271;49.464;11.070;2023-05-07T03:46:31;3.97;;;3.67;;
4517;SDS011;2271;49.464;11.070;2023-05-07T03:48:57;7.57;;;4.38;;
4517;SDS011;2271;49.464;11.070;2023-05-07T03:51:23;4.75;;;4.25;;
4517;SDS011;2271;49.464;11.070;2023-05-07T03:53:50;4.32;;;3.92;;
4517;SDS011;2271;49.464;11.070;2023-05-07T03:56:17;4.47;;;4.07;;
4517;SDS011;2271;49.464;11.070;2023-05-07T03:58:44;4.85;;;4.35;;
4517;SDS011;2271;49.464;11.070;2023-05-07T04:01:09;5.75;;;4.75;;
4517;SDS011;2271;49.464;11.070;2023-05-07T04:03:35;4.60;;;3.90;;
4517;SDS011;2271;49.464;11.070;2023-05-07T04:06:01;4.93;;;4.05;;
4517;SDS011;2271;49.464;11.070;2023-05-07T04:08:26;4.65;;;4.13;;
4517;SDS011;2271;49.464;11.070;2023-05-07T04:10:55;4.63;;;4.18;;
4517;SDS011;2271;49.464;11.070;2023-05-07T04:13:21;4.72;;;4.32;;
4517;SDS011;2271;49.464;11.070;2023-05-07T04:15:47;4.00;;;3.65;;
4517;SDS011;2271;49.464;11.070;2023-05-07T04:18:14;6.43;;;4.32;;
4517;SDS011;2271;49.464;11.070;2023-05-07T04:20:40;4.28;;;3.65;;
4517;SDS011;2271;49.464;11.070;2023-05-07T04:23:06;5.55;;;4.55;;
4517;SDS011;2271;49.464;11.070;2023-05-07T04:25:32;5.15;;;4.65;;
4517;SDS011;2271;49.464;11.070;2023-05-07T04:27:58;4.55;;;4.15;;
4517;SDS011;2271;49.464;11.070;2023-05-07T04:30:23;6.22;;;4.30;;
4517;SDS011;2271;49.464;11.070;2023-05-07T04:32:49;4.25;;;3.85;;
4517;SDS011;2271;49.464;11.070;2023-05-07T04:35:15;8.93;;;4.50;;
4517;SDS011;2271;49.464;11.070;2023-05-07T04:37:41;5.55;;;4.63;;
4517;SDS011;2271;49.464;11.070;2023-05-07T04:40:06;5.20;;;4.70;;
4517;SDS011;2271;49.464;11.070;2023-05-07T04:42:32;5.50;;;4.43;;
4517;SDS011;2271;49.464;11.070;2023-05-07T04:44:58;4.82;;;4.30;;
4517;SDS011;2271;49.464;11.070;2023-05-07T04:47:24;5.45;;;4.30;;
4517;SDS011;2271;49.464;11.070;2023-05-07T04:49:49;4.40;;;3.90;;
4517;SDS011;2271;49.464;11.070;2023-05-07T04:52:15;7.30;;;4.78;;
4517;SDS011;2271;49.464;11.070;2023-05-07T04:54:41;5.15;;;4.65;;
4517;SDS011;2271;49.464;11.070;2023-05-07T04:57:07;5.28;;;4.38;;
4517;SDS011;2271;49.464;11.070;2023-05-07T04:59:33;5.13;;;4.63;;
4517;SDS011;2271;49.464;11.070;2023-05-07T05:01:58;6.95;;;4.75;;
4517;SDS011;2271;49.464;11.070;2023-05-07T05:04:24;4.93;;;4.30;;
4517;SDS011;2271;49.464;11.070;2023-05-07T05:06:49;5.15;;;4.65;;
4517;SDS011;2271;49.464;11.070;2023-05-07T05:09:15;5.32;;;4.82;;
4517;SDS011;2271;49.464;11.070;2023-05-07T05:11:41;6.55;;;4.68;;
4517;SDS011;2271;49.464;11.070;2023-05-07T05:14:07;5.32;;;4.78;;
4517;SDS011;2271;49.464;11.070;2023-05-07T05:16:32;5.50;;;4.95;;
4517;SDS011;2271;49.464;11.070;2023-05-07T05:18:58;5.43;;;4.93;;
4517;SDS011;2271;49.464;11.070;2023-05-07T05:21:24;5.43;;;4.93;;
4517;SDS011;2271;49.464;11.070;2023-05-07T05:23:50;8.00;;;4.60;;
4517;SDS011;2271;49.464;11.070;2023-05-07T05:26:16;5.22;;;4.72;;
4517;SDS011;2271;49.464;11.070;2023-05-07T05:28:42;5.68;;;5.18;;
4517;SDS011;2271;49.464;11.070;2023-05-07T05:31:08;5.63;;;4.97;;
4517;SDS011;2271;49.464;11.070;2023-05-07T05:33:33;5.45;;;4.95;;
4517;SDS011;2271;49.464;11.070;2023-05-07T05:35:59;6.15;;;5.03;;
4517;SDS011;2271;49.464;11.070;2023-05-07T05:38:25;6.00;;;5.07;;
4517;SDS011;2271;49.464;11.070;2023-05-07T05:40:51;6.28;;;4.68;;
4517;SDS011;2271;49.464;11.070;2023-05-07T05:43:16;5.40;;;4.90;;
4517;SDS011;2271;49.464;11.070;2023-05-07T05:45:42;6.60;;;4.65;;
4517;SDS011;2271;49.464;11.070;2023-05-07T05:48:08;5.43;;;4.93;;
4517;SDS011;2271;49.464;11.070;2023-05-07T05:50:34;6.32;;;5.70;;
4517;SDS011;2271;49.464;11.070;2023-05-07T05:53:01;5.80;;;5.22;;
4517;SDS011;2271;49.464;11.070;2023-05-07T05:55:27;5.80;;;5.03;;
4517;SDS011;2271;49.464;11.070;2023-05-07T05:57:52;5.93;;;5.10;;
4517;SDS011;2271;49.464;11.070;2023-05-07T06:00:18;7.93;;;5.35;;
4517;SDS011;2271;49.464;11.070;2023-05-07T06:02:47;6.63;;;5.22;;
4517;SDS011;2271;49.464;11.070;2023-05-07T06:05:13;5.80;;;5.30;;
4517;SDS011;2271;49.464;11.070;2023-05-07T06:07:38;5.47;;;4.93;;
4517;SDS011;2271;49.464;11.070;2023-05-07T06:10:04;6.55;;;5.13;;
4517;SDS011;2271;49.464;11.070;2023-05-07T06:12:30;11.27;;;5.80;;
4517;SDS011;2271;49.464;11.070;2023-05-07T06:14:56;6.00;;;5.40;;
4517;SDS011;2271;49.464;11.070;2023-05-07T06:17:21;6.55;;;5.25;;
4517;SDS011;2271;49.464;11.070;2023-05-07T06:19:47;9.07;;;4.85;;
4517;SDS011;2271;49.464;11.070;2023-05-07T06:22:13;6.30;;;4.95;;
4517;SDS011;2271;49.464;11.070;2023-05-07T06:24:38;5.40;;;4.82;;
4517;SDS011;2271;49.464;11.070;2023-05-07T06:27:04;6.95;;;5.78;;
4517;SDS011;2271;49.464;11.070;2023-05-07T06:29:30;6.57;;;5.50;;
4517;SDS011;2271;49.464;11.070;2023-05-07T06:32:05;5.10;;;4.50;;
4517;SDS011;2271;49.464;11.070;2023-05-07T06:34:35;5.93;;;5.43;;
4517;SDS011;2271;49.464;11.070;2023-05-07T06:37:00;7.88;;;5.65;;
4517;SDS011;2271;49.464;11.070;2023-05-07T06:39:26;8.75;;;5.22;;
4517;SDS011;2271;49.464;11.070;2023-05-07T06:41:52;7.40;;;5.47;;
4517;SDS011;2271;49.464;11.070;2023-05-07T06:44:18;9.93;;;5.93;;
4517;SDS011;2271;49.464;11.070;2023-05-07T06:46:43;6.80;;;5.18;;
4517;SDS011;2271;49.464;11.070;2023-05-07T06:49:10;9.45;;;5.38;;
4517;SDS011;2271;49.464;11.070;2023-05-07T06:51:36;5.82;;;5.32;;
4517;SDS011;2271;49.464;11.070;2023-05-07T06:54:01;5.47;;;4.97;;
4517;SDS011;2271;49.464;11.070;2023-05-07T06:56:29;6.93;;;4.95;;
4517;SDS011;2271;49.464;11.070;2023-05-07T06:58:55;6.25;;;5.05;;
4517;SDS011;2271;49.464;11.070;2023-05-07T07:01:21;7.07;;;5.18;;
4517;SDS011;2271;49.464;11.070;2023-05-07T07:03:46;5.65;;;4.93;;
4517;SDS011;2271;49.464;11.070;2023-05-07T07:06:12;6.20;;;5.60;;
4517;SDS011;2271;49.464;11.070;2023-05-07T07:08:38;6.35;;;5.53;;
4517;SDS011;2271;49.464;11.070;2023-05-07T07:11:04;6.85;;;5.60;;
4517;SDS011;2271;49.464;11.070;2023-05-07T07:13:30;6.63;;;4.82;;
4517;SDS011;2271;49.464;11.070;2023-05-07T07:15:55;6.38;;;5.32;;
4517;SDS011;2271;49.464;11.070;2023-05-07T07:18:21;5.72;;;5.05;;
4517;SDS011;2271;49.464;11.070;2023-05-07T07:20:47;7.15;;;4.78;;
4517;SDS011;2271;49.464;11.070;2023-05-07T07:23:13;5.93;;;5.20;;
4517;SDS011;2271;49.464;11.070;2023-05-07T07:25:39;7.55;;;5.57;;
4517;SDS011;2271;49.464;11.070;2023-05-07T07:28:05;5.30;;;4.80;;
4517;SDS011;2271;49.464;11.070;2023-05-07T07:30:31;5.45;;;4.63;;
4517;SDS011;2271;49.464;11.070;2023-05-07T07:32:59;6.70;;;4.90;;
4517;SDS011;2271;49.464;11.070;2023-05-07T07:35:29;4.38;;;3.83;;
4517;SDS011;2271;49.464;11.070;2023-05-07T07:37:55;9.65;;;3.95;;
4517;SDS011;2271;49.464;11.070;2023-05-07T07:40:21;5.47;;;4.88;;
4517;SDS011;2271;49.464;11.070;2023-05-07T07:42:49;8.20;;;5.13;;
4517;SDS011;2271;49.464;11.070;2023-05-07T07:45:16;5.63;;;4.85;;
4517;SDS011;2271;49.464;11.070;2023-05-07T07:47:41;6.95;;;4.90;;
4517;SDS011;2271;49.464;11.070;2023-05-07T07:50:07;6.43;;;4.70;;
4517;SDS011;2271;49.464;11.070;2023-05-07T07:52:33;6.90;;;4.75;;
4517;SDS011;2271;49.464;11.070;2023-05-07T07:54:59;6.60;;;4.55;;
4517;SDS011;2271;49.464;11.070;2023-05-07T07:57:25;6.38;;;4.38;;
4517;SDS011;2271;49.464;11.070;2023-05-07T07:59:51;5.90;;;4.75;;
4517;SDS011;2271;49.464;11.070;2023-05-07T08:02:16;5.60;;;5.03;;
4517;SDS011;2271;49.464;11.070;2023-05-07T08:04:43;6.40;;;5.20;;
4517;SDS011;2271;49.464;11.070;2023-05-07T08:07:09;8.50;;;4.95;;
4517;SDS011;2271;49.464;11.070;2023-05-07T08:09:37;4.93;;;4.43;;
4517;SDS011;2271;49.464;11.070;2023-05-07T08:12:03;8.45;;;4.68;;
4517;SDS011;2271;49.464;11.070;2023-05-07T08:14:30;5.28;;;3.95;;
4517;SDS011;2271;49.464;11.070;2023-05-07T08:16:56;6.03;;;4.30;;
4517;SDS011;2271;49.464;11.070;2023-05-07T08:19:22;5.38;;;4.85;;
4517;SDS011;2271;49.464;11.070;2023-05-07T08:21:47;4.22;;;3.92;;
4517;SDS011;2271;49.464;11.070;2023-05-07T08:24:13;5.97;;;4.03;;
4517;SDS011;2271;49.464;11.070;2023-05-07T08:26:39;5.25;;;4.75;;
4517;SDS011;2271;49.464;11.070;2023-05-07T08:29:06;5.10;;;4.32;;
4517;SDS011;2271;49.464;11.070;2023-05-07T08:31:32;5.22;;;4.30;;
4517;SDS011;2271;49.464;11.070;2023-05-07T08:33:58;5.03;;;4.55;;
4517;SDS011;2271;49.464;11.070;2023-05-07T08:36:23;5.07;;;3.90;;
4517;SDS011;2271;49.464;11.070;2023-05-07T08:38:50;4.53;;;4.13;;
4517;SDS011;2271;49.464;11.070;2023-05-07T08:41:16;4.88;;;4.03;;
4517;SDS011;2271;49.464;11.070;2023-05-07T08:43:42;5.10;;;4.10;;
4517;SDS011;2271;49.464;11.070;2023-05-07T08:46:19;4.30;;;3.92;;
4517;SDS011;2271;49.464;11.070;2023-05-07T08:48:49;4.80;;;3.88;;
4517;SDS011;2271;49.464;11.070;2023-05-07T08:51:16;4.78;;;4.20;;
4517;SDS011;2271;49.464;11.070;2023-05-07T08:53:43;6.65;;;4.93;;
4517;SDS011;2271;49.464;11.070;2023-05-07T08:56:10;4.93;;;4.18;;
4517;SDS011;2271;49.464;11.070;2023-05-07T08:58:36;4.78;;;4.18;;
4517;SDS011;2271;49.464;11.070;2023-05-07T09:01:35;4.68;;;4.18;;
4517;SDS011;2271;49.464;11.070;2023-05-07T09:03:54;3.92;;;3.55;;
4517;SDS011;2271;49.464;11.070;2023-05-07T09:06:20;3.78;;;3.47;;
4517;SDS011;2271;49.464;11.070;2023-05-07T09:08:50;5.65;;;3.83;;
4517;SDS011;2271;49.464;11.070;2023-05-07T09:11:19;3.97;;;3.58;;
4517;SDS011;2271;49.464;11.070;2023-05-07T09:13:46;5.63;;;4.13;;
4517;SDS011;2271;49.464;11.070;2023-05-07T09:16:11;5.15;;;4.10;;
4517;SDS011;2271;49.464;11.070;2023-05-07T09:18:41;9.13;;;4.43;;
4517;SDS011;2271;49.464;11.070;2023-05-07T09:21:09;4.18;;;3.78;;
4517;SDS011;2271;49.464;11.070;2023-05-07T09:23:35;4.75;;;3.85;;
4517;SDS011;2271;49.464;11.070;2023-05-07T09:26:01;5.63;;;3.85;;
4517;SDS011;2271;49.464;11.070;2023-05-07T09:28:27;4.63;;;3.88;;
4517;SDS011;2271;49.464;11.070;2023-05-07T09:30:53;4.63;;;4.03;;
4517;SDS011;2271;49.464;11.070;2023-05-07T09:33:20;7.80;;;4.05;;
4517;SDS011;2271;49.464;11.070;2023-05-07T09:35:46;4.20;;;3.78;;
4517;SDS011;2271;49.464;11.070;2023-05-07T09:38:16;4.15;;;3.63;;
4517;SDS011;2271;49.464;11.070;2023-05-07T09:40:44;4.45;;;4.05;;
4517;SDS011;2271;49.464;11.070;2023-05-07T09:43:10;4.22;;;3.83;;
4517;SDS011;2271;49.464;11.070;2023-05-07T09:45:37;5.55;;;3.67;;
4517;SDS011;2271;49.464;11.070;2023-05-07T09:48:04;3.58;;;3.28;;
4517;SDS011;2271;49.464;11.070;2023-05-07T09:50:37;3.92;;;3.60;;
4517;SDS011;2271;49.464;11.070;2023-05-07T09:53:13;4.38;;;3.80;;
4517;SDS011;2271;49.464;11.070;2023-05-07T09:55:41;4.88;;;3.20;;
4517;SDS011;2271;49.464;11.070;2023-05-07T09:58:07;4.00;;;3.55;;
4517;SDS011;2271;49.464;11.070;2023-05-07T10:00:34;3.75;;;2.70;;
4517;SDS011;2271;49.464;11.070;2023-05-07T10:03:00;4.82;;;3.80;;
4517;SDS011;2271;49.464;11.070;2023-05-07T10:05:27;3.92;;;3.63;;
4517;SDS011;2271;49.464;11.070;2023-05-07T10:07:54;3.72;;;3.42;;
4517;SDS011;2271;49.464;11.070;2023-05-07T10:10:22;5.43;;;3.28;;
4517;SDS011;2271;49.464;11.070;2023-05-07T10:12:49;4.95;;;3.28;;
4517;SDS011;2271;49.464;11.070;2023-05-07T10:15:16;4.03;;;3.58;;
4517;SDS011;2271;49.464;11.070;2023-05-07T10:17:42;5.35;;;3.40;;
4517;SDS011;2271;49.464;11.070;2023-05-07T10:20:08;3.65;;;3.28;;
4517;SDS011;2271;49.464;11.070;2023-05-07T10:22:44;3.88;;;3.53;;
4517;SDS011;2271;49.464;11.070;2023-05-07T10:25:22;5.28;;;4.15;;
4517;SDS011;2271;49.464;11.070;2023-05-07T10:27:57;5.82;;;3.92;;
4517;SDS011;2271;49.464;11.070;2023-05-07T10:33:01;3.75;;;3.17;;
4517;SDS011;2271;49.464;11.070;2023-05-07T10:35:31;6.45;;;3.35;;
4517;SDS011;2271;49.464;11.070;2023-05-07T10:38:03;4.88;;;3.17;;
4517;SDS011;2271;49.464;11.070;2023-05-07T10:40:30;3.42;;;3.10;;
4517;SDS011;2271;49.464;11.070;2023-05-07T10:42:57;3.50;;;3.20;;
4517;SDS011;2271;49.464;11.070;2023-05-07T10:45:25;6.65;;;3.63;;
4517;SDS011;2271;49.464;11.070;2023-05-07T10:50:49;5.60;;;2.80;;
4517;SDS011;2271;49.464;11.070;2023-05-07T10:53:45;4.15;;;3.10;;
4517;SDS011;2271;49.464;11.070;2023-05-07T10:58:42;4.28;;;3.88;;
4517;SDS011;2271;49.464;11.070;2023-05-07T11:01:08;4.70;;;3.35;;
4517;SDS011;2271;49.464;11.070;2023-05-07T11:03:35;4.20;;;3.10;;
4517;SDS011;2271;49.464;11.070;2023-05-07T11:06:10;3.47;;;2.78;;
4517;SDS011;2271;49.464;11.070;2023-05-07T11:11:18;3.40;;;3.10;;
4517;SDS011;2271;49.464;11.070;2023-05-07T11:13:45;3.60;;;3.22;;
4517;SDS011;2271;49.464;11.070;2023-05-07T11:18:53;3.72;;;2.90;;
4517;SDS011;2271;49.464;11.070;2023-05-07T11:24:02;3.28;;;2.97;;
4517;SDS011;2271;49.464;11.070;2023-05-07T11:26:30;5.55;;;2.70;;
4517;SDS011;2271;49.464;11.070;2023-05-07T11:29:09;4.78;;;2.78;;
4517;SDS011;2271;49.464;11.070;2023-05-07T11:31:39;4.22;;;3.25;;
4517;SDS011;2271;49.464;11.070;2023-05-07T11:34:05;4.68;;;3.10;;
4517;SDS011;2271;49.464;11.070;2023-05-07T11:36:32;5.00;;;3.30;;
4517;SDS011;2271;49.464;11.070;2023-05-07T11:38:58;4.13;;;2.92;;
4517;SDS011;2271;49.464;11.070;2023-05-07T11:41:34;4.50;;;3.15;;
4517;SDS011;2271;49.464;11.070;2023-05-07T11:44:01;6.75;;;3.88;;
4517;SDS011;2271;49.464;11.070;2023-05-07T11:46:28;8.07;;;3.83;;
4517;SDS011;2271;49.464;11.070;2023-05-07T11:48:54;6.65;;;3.35;;
4517;SDS011;2271;49.464;11.070;2023-05-07T11:51:22;5.60;;;3.42;;
4517;SDS011;2271;49.464;11.070;2023-05-07T11:53:48;8.35;;;2.90;;
4517;SDS011;2271;49.464;11.070;2023-05-07T11:56:16;3.92;;;2.55;;
4517;SDS011;2271;49.464;11.070;2023-05-07T11:58:42;3.95;;;2.70;;
4517;SDS011;2271;49.464;11.070;2023-05-07T12:01:11;3.88;;;2.60;;
4517;SDS011;2271;49.464;11.070;2023-05-07T12:03:39;4.55;;;2.20;;
4517;SDS011;2271;49.464;11.070;2023-05-07T12:06:11;2.20;;;2.00;;
4517;SDS011;2271;49.464;11.070;2023-05-07T12:08:38;2.55;;;2.35;;
4517;SDS011;2271;49.464;11.070;2023-05-07T12:11:08;2.67;;;2.10;;
4517;SDS011;2271;49.464;11.070;2023-05-07T12:13:37;4.72;;;3.65;;
4517;SDS011;2271;49.464;11.070;2023-05-07T12:16:03;5.00;;;3.10;;
4517;SDS011;2271;49.464;11.070;2023-05-07T12:18:30;2.90;;;2.30;;
4517;SDS011;2271;49.464;11.070;2023-05-07T12:20:56;4.38;;;2.33;;
4517;SDS011;2271;49.464;11.070;2023-05-07T12:23:22;2.55;;;2.13;;
4517;SDS011;2271;49.464;11.070;2023-05-07T12:25:48;3.38;;;2.92;;
4517;SDS011;2271;49.464;11.070;2023-05-07T12:28:14;2.72;;;2.50;;
4517;SDS011;2271;49.464;11.070;2023-05-07T12:30:41;3.17;;;2.88;;
4517;SDS011;2271;49.464;11.070;2023-05-07T12:33:08;3.20;;;2.88;;
4517;SDS011;2271;49.464;11.070;2023-05-07T12:35:39;3.63;;;3.13;;
4517;SDS011;2271;49.464;11.070;2023-05-07T12:38:09;4.18;;;3.13;;
4517;SDS011;2271;49.464;11.070;2023-05-07T12:43:03;5.00;;;3.05;;
4517;SDS011;2271;49.464;11.070;2023-05-07T12:45:29;3.00;;;2.15;;
4517;SDS011;2271;49.464;11.070;2023-05-07T12:47:55;3.35;;;2.70;;
4517;SDS011;2271;49.464;11.070;2023-05-07T12:50:21;6.10;;;3.15;;
4517;SDS011;2271;49.464;11.070;2023-05-07T12:52:47;3.30;;;3.00;;
4517;SDS011;2271;49.464;11.070;2023-05-07T12:55:16;4.47;;;3.20;;
4517;SDS011;2271;49.464;11.070;2023-05-07T12:57:42;2.80;;;2.53;;
4517;SDS011;2271;49.464;11.070;2023-05-07T13:00:10;3.63;;;3.28;;
4517;SDS011;2271;49.464;11.070;2023-05-07T13:02:40;5.32;;;3.17;;
4517;SDS011;2271;49.464;11.070;2023-05-07T13:05:09;3.08;;;2.78;;
4517;SDS011;2271;49.464;11.070;2023-05-07T13:07:35;2.97;;;2.67;;
4517;SDS011;2271;49.464;11.070;2023-05-07T13:10:02;3.20;;;2.90;;
4517;SDS011;2271;49.464;11.070;2023-05-07T13:12:28;2.70;;;2.50;;
4517;SDS011;2271;49.464;11.070;2023-05-07T13:14:53;4.88;;;2.80;;
4517;SDS011;2271;49.464;11.070;2023-05-07T13:17:19;5.75;;;4.15;;
4517;SDS011;2271;49.464;11.070;2023-05-07T13:19:44;4.13;;;3.67;;
4517;SDS011;2271;49.464;11.070;2023-05-07T13:22:10;5.65;;;4.07;;
4517;SDS011;2271;49.464;11.070;2023-05-07T13:24:36;4.65;;;3.03;;
4517;SDS011;2271;49.464;11.070;2023-05-07T13:27:01;4.95;;;3.08;;
4517;SDS011;2271;49.464;11.070;2023-05-07T13:29:28;2.85;;;2.65;;
4517;SDS011;2271;49.464;11.070;2023-05-07T13:31:55;3.10;;;2.75;;
4517;SDS011;2271;49.464;11.070;2023-05-07T13:34:21;2.78;;;2.58;;
4517;SDS011;2271;49.464;11.070;2023-05-07T13:36:47;2.80;;;2.60;;
4517;SDS011;2271;49.464;11.070;2023-05-07T13:39:13;2.58;;;2.38;;
4517;SDS011;2271;49.464;11.070;2023-05-07T13:41:38;2.30;;;1.98;;
4517;SDS011;2271;49.464;11.070;2023-05-07T13:44:04;3.72;;;2.90;;
4517;SDS011;2271;49.464;11.070;2023-05-07T13:46:29;5.78;;;3.17;;
4517;SDS011;2271;49.464;11.070;2023-05-07T13:48:55;3.28;;;2.97;;
4517;SDS011;2271;49.464;11.070;2023-05-07T13:51:21;3.45;;;2.70;;
4517;SDS011;2271;49.464;11.070;2023-05-07T13:53:47;3.65;;;2.65;;
4517;SDS011;2271;49.464;11.070;2023-05-07T13:56:13;2.83;;;2.63;;
4517;SDS011;2271;49.464;11.070;2023-05-07T13:58:39;4.63;;;2.30;;
4517;SDS011;2271;49.464;11.070;2023-05-07T14:01:05;3.88;;;2.53;;
4517;SDS011;2271;49.464;11.070;2023-05-07T14:03:30;2.47;;;2.10;;
4517;SDS011;2271;49.464;11.070;2023-05-07T14:06:00;3.53;;;2.58;;
4517;SDS011;2271;49.464;11.070;2023-05-07T14:08:26;6.78;;;6.20;;
4517;SDS011;2271;49.464;11.070;2023-05-07T14:10:52;3.20;;;3.00;;
4517;SDS011;2271;49.464;11.070;2023-05-07T14:13:18;4.03;;;2.75;;
4517;SDS011;2271;49.464;11.070;2023-05-07T14:15:44;4.03;;;2.95;;
4517;SDS011;2271;49.464;11.070;2023-05-07T14:18:14;2.53;;;2.33;;
4517;SDS011;2271;49.464;11.070;2023-05-07T14:20:40;3.72;;;2.33;;
4517;SDS011;2271;49.464;11.070;2023-05-07T14:23:06;4.25;;;3.35;;
4517;SDS011;2271;49.464;11.070;2023-05-07T14:25:31;4.80;;;3.88;;
4517;SDS011;2271;49.464;11.070;2023-05-07T14:27:57;2.95;;;2.45;;
4517;SDS011;2271;49.464;11.070;2023-05-07T14:30:23;4.15;;;2.83;;
4517;SDS011;2271;49.464;11.070;2023-05-07T14:32:51;1.95;;;1.85;;
4517;SDS011;2271;49.464;11.070;2023-05-07T14:35:17;5.65;;;3.08;;
4517;SDS011;2271;49.464;11.070;2023-05-07T14:37:43;3.15;;;2.85;;
4517;SDS011;2271;49.464;11.070;2023-05-07T14:40:09;3.63;;;2.90;;
4517;SDS011;2271;49.464;11.070;2023-05-07T14:42:35;4.75;;;3.22;;
4517;SDS011;2271;49.464;11.070;2023-05-07T14:45:01;2.78;;;2.42;;
4517;SDS011;2271;49.464;11.070;2023-05-07T14:47:27;2.83;;;2.50;;
4517;SDS011;2271;49.464;11.070;2023-05-07T14:49:53;4.07;;;3.22;;
4517;SDS011;2271;49.464;11.070;2023-05-07T14:52:19;2.67;;;2.47;;
4517;SDS011;2271;49.464;11.070;2023-05-07T14:54:45;2.78;;;2.58;;
4517;SDS011;2271;49.464;11.070;2023-05-07T14:57:11;3.85;;;3.17;;
4517;SDS011;2271;49.464;11.070;2023-05-07T14:59:39;5.55;;;2.60;;
4517;SDS011;2271;49.464;11.070;2023-05-07T15:02:06;3.20;;;2.90;;
4517;SDS011;2271;49.464;11.070;2023-05-07T15:04:32;5.13;;;3.10;;
4517;SDS011;2271;49.464;11.070;2023-05-07T15:06:59;3.85;;;3.33;;
4517;SDS011;2271;49.464;11.070;2023-05-07T15:09:25;3.13;;;2.83;;
4517;SDS011;2271;49.464;11.070;2023-05-07T15:11:51;3.72;;;3.13;;
4517;SDS011;2271;49.464;11.070;2023-05-07T15:14:17;3.33;;;2.97;;
4517;SDS011;2271;49.464;11.070;2023-05-07T15:16:42;3.60;;;3.20;;